createdAt,value
2023-02-11T01:33:45.257Z,53.22
2023-02-11T01:34:45.823Z,52.37
2023-02-11T01:35:45.356Z,55.42
2023-02-11T01:36:45.449Z,53.89
2023-02-11T01:37:45.546Z,52.04
2023-02-11T01:38:45.637Z,53.09
2023-02-11T01:39:45.712Z,53.32
2023-02-11T01:40:45.798Z,59.28
2023-02-11T01:41:45.946Z,55.20
2023-02-11T01:42:45.969Z,49.63
2023-02-11T01:43:46.065Z,54.77
2023-02-11T01:44:46.145Z,54.00
2023-02-11T01:45:46.231Z,54.47
2023-02-11T01:46:46.409Z,50.16
2023-02-11T01:47:46.417Z,50.88
2023-02-11T01:48:46.680Z,54.01
2023-02-11T01:49:46.577Z,50.73
2023-02-11T01:50:46.664Z,53.14
2023-02-11T01:51:46.747Z,52.48
2023-02-11T01:52:46.837Z,53.56
2023-02-11T01:53:47.847Z,51.59
2023-02-11T01:54:47.007Z,53.67
2023-02-11T01:55:47.232Z,50.84
2023-02-11T01:56:47.175Z,49.52
2023-02-11T01:57:47.259Z,51.46
2023-02-11T01:58:47.347Z,50.02
2023-02-11T01:59:47.426Z,46.88
2023-02-11T02:00:47.509Z,47.86
2023-02-11T02:01:47.637Z,50.19
2023-02-11T02:02:47.710Z,48.77
2023-02-11T02:03:47.829Z,46.90
2023-02-11T02:04:47.870Z,50.86
2023-02-11T02:05:48.406Z,48.36
2023-02-11T02:06:48.043Z,47.87
2023-02-11T02:07:48.127Z,45.25
2023-02-11T02:08:48.222Z,47.26
2023-02-11T02:09:48.333Z,46.04
2023-02-11T02:10:48.486Z,45.32
2023-02-11T02:11:48.498Z,48.02
2023-02-11T02:12:48.568Z,46.39
2023-02-11T02:13:48.655Z,45.03
2023-02-11T02:14:48.737Z,45.08
2023-02-11T02:15:49.422Z,46.69
2023-02-11T02:16:48.913Z,48.97
2023-02-11T02:17:49.001Z,45.41
2023-02-11T02:18:49.104Z,45.03
2023-02-11T02:19:49.181Z,47.72
2023-02-11T02:20:49.269Z,46.21
2023-02-11T02:21:50.321Z,48.78
2023-02-11T02:22:49.470Z,45.78
2023-02-11T02:23:49.535Z,48.53
2023-02-11T02:24:49.627Z,42.71
2023-02-11T02:25:50.113Z,45.71
2023-02-11T02:26:49.817Z,48.23
2023-02-11T02:27:49.944Z,46.45
2023-02-11T02:28:49.986Z,44.42
2023-02-11T02:29:50.083Z,43.11
2023-02-11T02:30:50.223Z,46.13
2023-02-11T02:31:50.281Z,42.70
2023-02-11T02:32:50.361Z,46.69
2023-02-11T02:33:50.449Z,40.74
2023-02-11T02:34:50.534Z,43.86
2023-02-11T02:35:50.848Z,43.00
2023-02-11T02:36:50.686Z,44.87
2023-02-11T02:37:50.767Z,44.09
2023-02-11T02:38:50.897Z,43.62
2023-02-11T02:39:51.331Z,44.04
2023-02-11T02:40:51.043Z,46.21
2023-02-11T02:41:51.104Z,41.97
2023-02-11T02:42:51.195Z,45.18
2023-02-11T02:43:51.282Z,43.78
2023-02-11T02:44:51.373Z,44.88
2023-02-11T02:45:51.763Z,44.17
2023-02-11T02:46:51.574Z,41.59
2023-02-11T02:47:51.635Z,42.95
2023-02-11T02:48:51.703Z,42.36
2023-02-11T02:49:51.780Z,41.59
2023-02-11T02:50:51.888Z,42.99
2023-02-11T02:51:51.965Z,40.88
2023-02-11T02:52:52.055Z,42.42
2023-02-11T02:53:52.154Z,40.34
2023-02-11T02:54:52.234Z,40.24
2023-02-11T02:55:52.479Z,40.49
2023-02-11T02:56:52.428Z,41.69
2023-02-11T02:57:52.517Z,42.35
2023-02-11T02:58:53.316Z,42.44
2023-02-11T02:59:52.684Z,42.24
2023-02-11T03:00:52.822Z,40.62
2023-02-11T03:01:52.867Z,38.87
2023-02-11T03:02:52.945Z,40.28
2023-02-11T03:03:53.143Z,39.70
2023-02-11T03:04:53.124Z,38.54
2023-02-11T03:05:53.508Z,37.86
2023-02-11T03:06:53.291Z,38.01
2023-02-11T03:07:53.353Z,41.19
2023-02-11T03:08:53.419Z,39.36
2023-02-11T03:09:53.475Z,40.07
2023-02-11T03:10:53.532Z,36.66
2023-02-11T03:11:53.586Z,37.13
2023-02-11T03:12:53.659Z,40.39
2023-02-11T03:13:53.678Z,39.05
2023-02-11T03:14:53.747Z,37.04
2023-02-11T03:15:54.123Z,36.79
2023-02-11T03:16:53.885Z,34.07
2023-02-11T03:17:54.061Z,37.51
2023-02-11T03:18:54.059Z,38.53
2023-02-11T03:19:54.817Z,39.01
2023-02-11T03:20:54.198Z,38.44
2023-02-11T03:21:54.269Z,38.38
2023-02-11T03:22:54.345Z,35.99
2023-02-11T03:23:54.421Z,33.74
2023-02-11T03:24:54.485Z,36.86
2023-02-11T03:25:54.549Z,39.23
2023-02-11T03:26:54.632Z,36.99
2023-02-11T03:27:54.746Z,38.31
2023-02-11T03:28:54.729Z,36.66
2023-02-11T03:29:54.792Z,33.76
2023-02-11T03:30:54.865Z,33.75
2023-02-11T03:31:54.960Z,36.04
2023-02-11T03:32:54.937Z,34.62
2023-02-11T03:33:55.003Z,37.13
2023-02-11T03:34:55.068Z,35.68
2023-02-11T03:35:55.130Z,38.35
2023-02-11T03:36:55.212Z,38.91
2023-02-11T03:37:55.293Z,37.16
2023-02-11T03:38:55.343Z,36.32
2023-02-11T03:39:55.396Z,40.15
2023-02-11T03:40:55.462Z,38.34
2023-02-11T03:41:55.536Z,33.97
2023-02-11T03:42:55.636Z,34.08
2023-02-11T03:43:55.715Z,34.72
2023-02-11T03:44:55.773Z,31.70
2023-02-11T03:45:55.923Z,34.86
2023-02-11T03:46:55.942Z,33.29
2023-02-11T03:47:56.004Z,39.38
2023-02-11T03:48:56.039Z,33.15
2023-02-11T03:49:56.102Z,32.29
2023-02-11T03:50:56.167Z,33.16
2023-02-11T03:51:56.212Z,35.49
2023-02-11T03:52:56.274Z,35.20
2023-02-11T03:53:56.326Z,31.95
2023-02-11T03:54:56.382Z,32.14
2023-02-11T03:55:56.424Z,34.56
2023-02-11T03:56:56.459Z,34.64
2023-02-11T03:57:56.568Z,33.06
2023-02-11T03:58:56.575Z,36.90
2023-02-11T03:59:56.593Z,35.49
2023-02-11T04:00:57.409Z,36.92
2023-02-11T04:01:56.693Z,32.18
2023-02-11T04:02:56.824Z,35.50
2023-02-11T04:03:56.824Z,37.89
2023-02-11T04:04:56.861Z,35.70
2023-02-11T04:05:58.822Z,37.57
2023-02-11T04:06:56.970Z,38.05
2023-02-11T04:07:57.319Z,35.79
2023-02-11T04:08:57.081Z,35.19
2023-02-11T04:09:57.138Z,36.11
2023-02-11T04:10:57.205Z,34.75
2023-02-11T04:11:57.257Z,33.48
2023-02-11T04:12:57.328Z,35.43
2023-02-11T04:13:57.386Z,34.67
2023-02-11T04:14:57.461Z,38.22
2023-02-11T04:15:57.651Z,32.33
2023-02-11T04:16:57.633Z,32.48
2023-02-11T04:17:57.690Z,32.32
2023-02-11T04:18:57.759Z,33.25
2023-02-11T04:19:58.808Z,35.19
2023-02-11T04:20:57.910Z,34.34
2023-02-11T04:21:58.014Z,37.29
2023-02-11T04:22:58.095Z,36.30
2023-02-11T04:23:58.166Z,36.34
2023-02-11T04:24:58.244Z,35.23
2023-02-11T04:25:58.337Z,31.86
2023-02-11T04:26:58.446Z,33.46
2023-02-11T04:27:58.514Z,32.09
2023-02-11T04:28:58.587Z,35.38
2023-02-11T04:29:58.646Z,30.87
2023-02-11T04:30:58.780Z,31.80
2023-02-11T04:31:58.849Z,32.83
2023-02-11T04:32:59.813Z,29.78
2023-02-11T04:33:59.008Z,31.86
2023-02-11T04:34:59.076Z,35.64
2023-02-11T04:35:59.159Z,30.42
2023-02-11T04:36:59.250Z,30.82
2023-02-11T04:37:59.350Z,32.60
2023-02-11T04:38:59.449Z,29.00
2023-02-11T04:39:59.531Z,29.79
2023-02-11T04:40:59.603Z,27.06
2023-02-11T04:41:59.663Z,27.16
2023-02-11T04:42:59.716Z,26.56
2023-02-11T04:43:59.770Z,28.12
2023-02-11T04:44:59.849Z,27.86
2023-02-11T04:46:00.019Z,27.22
2023-02-11T04:46:59.985Z,26.62
2023-02-11T04:48:00.099Z,27.50
2023-02-11T04:49:00.161Z,26.31
2023-02-11T04:50:00.224Z,26.31
2023-02-11T04:51:00.290Z,27.56
2023-02-11T04:52:00.373Z,28.52
2023-02-11T04:53:00.430Z,27.61
2023-02-11T04:54:00.505Z,28.44
2023-02-11T04:55:00.541Z,26.78
2023-02-11T04:56:00.605Z,26.91
2023-02-11T04:57:00.667Z,27.47
2023-02-11T04:58:00.759Z,28.51
2023-02-11T04:59:00.857Z,28.97
2023-02-11T05:00:01.176Z,25.81
2023-02-11T05:01:01.002Z,25.83
2023-02-11T05:02:01.054Z,28.73
2023-02-11T05:03:01.109Z,26.41
2023-02-11T05:04:01.225Z,25.58
2023-02-11T05:05:01.244Z,25.93
2023-02-11T05:06:01.324Z,29.20
2023-02-11T05:07:01.397Z,26.60
2023-02-11T05:08:01.483Z,28.31
2023-02-11T05:09:01.557Z,25.76
2023-02-11T05:10:01.625Z,27.21
2023-02-11T05:11:01.658Z,28.87
2023-02-11T05:12:01.733Z,25.79
2023-02-11T05:13:01.788Z,30.03
2023-02-11T05:14:01.836Z,29.41
2023-02-11T05:15:01.882Z,30.30
2023-02-11T05:16:01.925Z,30.09
2023-02-11T05:17:02.052Z,30.59
2023-02-11T05:18:02.028Z,29.36
2023-02-11T05:19:02.077Z,31.68
2023-02-11T05:20:02.146Z,28.26
2023-02-11T05:21:02.178Z,27.29
2023-02-11T05:22:03.665Z,26.21
2023-02-11T05:23:02.286Z,27.82
2023-02-11T05:24:02.341Z,25.68
2023-02-11T05:25:02.463Z,26.98
2023-02-11T05:26:02.446Z,28.31
2023-02-11T05:27:02.510Z,25.91
2023-02-11T05:28:02.612Z,27.33
2023-02-11T05:29:02.616Z,27.31
2023-02-11T05:30:03.305Z,27.33
2023-02-11T05:31:02.792Z,28.27
2023-02-11T05:32:03.329Z,27.62
2023-02-11T05:33:02.852Z,27.13
2023-02-11T05:34:02.896Z,30.65
2023-02-11T05:35:02.959Z,27.45
2023-02-11T05:37:03.104Z,26.81
2023-02-11T05:38:03.063Z,30.18
2023-02-11T05:39:03.112Z,29.16
2023-02-11T05:40:03.168Z,26.87
2023-02-11T05:41:03.189Z,29.03
2023-02-11T05:42:03.218Z,29.20
2023-02-11T05:43:03.236Z,29.45
2023-02-11T05:44:03.266Z,30.30
2023-02-11T05:45:03.311Z,32.07
2023-02-11T05:46:03.418Z,30.45
2023-02-11T05:47:03.347Z,30.76
2023-02-11T05:48:03.374Z,31.31
2023-02-11T05:49:03.403Z,25.94
2023-02-11T05:50:03.439Z,30.54
2023-02-11T05:51:03.459Z,29.97
2023-02-11T05:52:03.482Z,30.83
2023-02-11T05:53:03.502Z,31.51
2023-02-11T05:54:03.533Z,32.07
2023-02-11T05:55:03.575Z,32.51
2023-02-11T05:56:03.597Z,31.81
2023-02-11T05:57:03.602Z,32.68
2023-02-11T05:58:03.618Z,34.42
2023-02-11T05:59:03.649Z,33.93
2023-02-11T06:00:03.679Z,33.12
2023-02-11T06:01:03.700Z,32.40
2023-02-11T06:02:03.737Z,32.50
2023-02-11T06:03:03.784Z,32.83
2023-02-11T06:04:03.885Z,32.26
2023-02-11T06:05:03.904Z,29.55
2023-02-11T06:06:03.934Z,35.43
2023-02-11T06:07:03.959Z,36.50
2023-02-11T06:08:03.995Z,35.15
2023-02-11T06:09:04.037Z,33.93
2023-02-11T06:10:04.172Z,34.88
2023-02-11T06:11:04.125Z,32.82
2023-02-11T06:12:04.140Z,33.35
2023-02-11T06:13:04.175Z,30.55
2023-02-11T06:14:04.203Z,32.77
2023-02-11T06:15:04.263Z,33.20
2023-02-11T06:16:04.342Z,35.64
2023-02-11T06:17:04.358Z,33.31
2023-02-11T06:18:04.340Z,33.43
2023-02-11T06:19:04.359Z,34.94
2023-02-11T06:20:04.399Z,31.62
2023-02-11T06:21:04.433Z,31.77
2023-02-11T06:22:04.473Z,34.20
2023-02-11T06:23:04.491Z,34.10
2023-02-11T06:40:05.174Z,32.10
2023-02-11T06:41:05.231Z,33.25
2023-02-11T06:42:07.684Z,32.40
2023-02-11T06:43:05.285Z,31.58
2023-02-11T06:44:05.305Z,34.35
2023-02-11T06:45:05.321Z,32.47
2023-02-11T06:46:05.353Z,30.02
2023-02-11T06:47:05.350Z,32.97
2023-02-11T06:48:05.377Z,32.39
2023-02-11T06:49:05.397Z,32.93
2023-02-11T06:50:05.410Z,36.29
2023-02-11T06:51:05.425Z,31.49
2023-02-11T06:52:05.446Z,31.15
2023-02-11T06:53:05.469Z,31.59
2023-02-11T06:54:05.491Z,32.11
2023-02-11T06:55:05.505Z,33.36
2023-02-11T06:56:05.522Z,32.84
2023-02-11T06:57:05.550Z,32.37
2023-02-11T06:58:05.635Z,30.77
2023-02-11T06:59:05.596Z,29.35
2023-02-11T07:00:05.972Z,30.88
2023-02-11T07:01:05.612Z,30.47
2023-02-11T07:02:05.681Z,31.87
2023-02-11T07:03:05.713Z,35.83
2023-02-11T07:04:05.664Z,34.57
2023-02-11T07:05:05.673Z,34.11
2023-02-11T07:06:05.695Z,32.63
2023-02-11T07:07:05.716Z,35.24
2023-02-11T07:08:05.725Z,35.39
2023-02-11T07:09:05.744Z,34.69
2023-02-11T07:10:05.765Z,33.54
2023-02-11T07:11:05.776Z,34.73
2023-02-11T07:12:05.783Z,34.36
2023-02-11T07:13:05.805Z,37.60
2023-02-11T07:14:05.822Z,37.08
2023-02-11T07:15:05.832Z,35.78
2023-02-11T07:16:05.889Z,34.48
2023-02-11T07:17:05.864Z,34.68
2023-02-11T07:18:05.878Z,32.95
2023-02-11T07:19:05.897Z,34.49
2023-02-11T07:20:05.916Z,36.76
2023-02-11T07:21:05.962Z,36.23
2023-02-11T07:22:05.958Z,35.97
2023-02-11T07:23:05.974Z,38.59
2023-02-11T07:24:07.305Z,37.10
2023-02-11T07:25:06.010Z,37.21
2023-02-11T07:26:06.045Z,37.47
2023-02-11T07:27:06.055Z,35.93
2023-02-11T07:28:06.194Z,36.17
2023-02-11T07:29:06.310Z,36.45
2023-02-11T07:30:07.408Z,35.42
2023-02-11T07:31:06.205Z,36.82
2023-02-11T07:32:06.180Z,35.06
2023-02-11T07:33:06.144Z,37.21
2023-02-11T07:34:06.167Z,38.73
2023-02-11T07:35:06.235Z,35.23
2023-02-11T07:36:06.199Z,38.84
2023-02-11T07:37:06.204Z,34.77
2023-02-11T07:38:06.225Z,38.25
2023-02-11T07:39:06.242Z,37.54
2023-02-11T07:40:06.263Z,37.80
2023-02-11T07:41:06.282Z,32.56
2023-02-11T07:42:06.299Z,37.26
2023-02-11T07:43:06.315Z,35.13
2023-02-11T07:44:06.348Z,36.03
2023-02-11T07:45:06.362Z,35.51
2023-02-11T07:46:06.381Z,32.14
2023-02-11T07:47:06.481Z,32.38
2023-02-11T07:48:06.405Z,31.15
2023-02-11T07:49:06.422Z,36.77
2023-02-11T07:50:06.454Z,33.31
2023-02-11T07:51:06.465Z,34.11
2023-02-11T07:52:06.546Z,32.82
2023-02-11T07:53:06.488Z,33.74
2023-02-11T07:54:06.508Z,32.45
2023-02-11T07:55:06.527Z,30.08
2023-02-11T07:56:06.535Z,32.49
2023-02-11T07:57:06.569Z,31.15
2023-02-11T07:58:06.586Z,33.25
2023-02-11T07:59:06.598Z,34.21
2023-02-11T08:00:06.621Z,32.49
2023-02-11T08:01:06.647Z,36.63
2023-02-11T08:02:06.746Z,33.49
2023-02-11T08:10:06.814Z,31.01
2023-02-11T08:11:06.822Z,31.84
2023-02-11T08:12:06.838Z,30.37
2023-02-11T08:13:06.851Z,35.26
2023-02-11T08:14:06.872Z,34.99
2023-02-11T08:15:06.972Z,33.93
2023-02-11T08:16:06.984Z,33.83
2023-02-11T08:17:06.926Z,32.50
2023-02-11T08:18:06.943Z,32.18
2023-02-11T08:19:06.972Z,30.88
2023-02-11T08:20:06.982Z,32.62
2023-02-11T08:21:07.012Z,32.32
2023-02-11T08:22:07.022Z,33.86
2023-02-11T08:23:07.036Z,32.04
2023-02-11T08:24:07.051Z,32.67
2023-02-11T08:25:07.068Z,33.92
2023-02-11T08:26:07.125Z,35.66
2023-02-11T08:27:07.098Z,32.64
2023-02-11T08:40:07.310Z,34.71
2023-02-11T08:58:07.651Z,36.55
2023-02-11T08:59:07.737Z,36.43
2023-02-11T09:00:07.663Z,36.32
2023-02-11T09:01:07.705Z,35.21
2023-02-11T09:02:07.708Z,34.15
2023-02-11T09:03:07.702Z,35.10
2023-02-11T09:04:07.727Z,34.21
2023-02-11T09:05:07.824Z,36.64
2023-02-11T09:06:07.765Z,37.29
2023-02-11T09:07:07.784Z,39.63
2023-02-11T09:08:07.799Z,35.10
2023-02-11T09:09:07.819Z,37.84
2023-02-11T09:10:07.839Z,38.75
2023-02-11T09:11:07.844Z,37.04
2023-02-11T09:12:08.776Z,38.03
2023-02-11T09:13:07.901Z,37.03
2023-02-11T09:14:08.016Z,38.98
2023-02-11T09:15:07.974Z,38.44
2023-02-11T09:16:07.954Z,36.00
2023-02-11T09:17:08.039Z,34.99
2023-02-11T09:18:07.988Z,37.97
2023-02-11T09:19:08.017Z,38.42
2023-02-11T09:20:10.452Z,38.78
2023-02-11T09:21:08.052Z,41.08
2023-02-11T09:22:08.063Z,41.81
2023-02-11T09:23:08.096Z,43.47
2023-02-11T09:24:08.103Z,42.61
2023-02-11T09:25:08.123Z,41.46
2023-02-11T09:26:09.376Z,40.39
2023-02-11T09:27:08.150Z,42.10
2023-02-11T09:28:08.228Z,41.08
2023-02-11T09:29:08.184Z,41.11
2023-02-11T09:30:08.196Z,41.28
2023-02-11T09:31:08.318Z,42.97
2023-02-11T09:32:09.913Z,43.15
2023-02-11T09:33:08.247Z,43.05
2023-02-11T09:34:08.276Z,41.08
2023-02-11T09:35:08.291Z,42.38
2023-02-11T09:36:08.321Z,42.10
2023-02-11T09:37:08.309Z,41.26
2023-02-11T09:38:08.325Z,42.29
2023-02-11T09:39:08.337Z,40.45
2023-02-11T09:40:08.347Z,40.14
2023-02-11T09:41:08.370Z,41.42
2023-02-11T09:42:08.384Z,41.08
2023-02-11T09:43:08.396Z,42.80
2023-02-11T09:44:08.418Z,39.07
2023-02-11T09:45:08.432Z,37.06
2023-02-11T09:46:08.495Z,40.66
2023-02-11T09:47:08.456Z,38.94
2023-02-11T09:48:08.471Z,40.37
2023-02-11T09:49:08.492Z,42.28
2023-02-11T09:50:08.508Z,39.62
2023-02-11T09:51:08.540Z,40.42
2023-02-11T09:52:08.551Z,40.20
2023-02-11T09:53:08.551Z,41.06
2023-02-11T09:54:08.575Z,45.70
2023-02-11T09:55:08.589Z,42.47
2023-02-11T09:56:08.613Z,38.97
2023-02-11T09:57:16.880Z,43.22
2023-02-11T09:58:09.651Z,43.23
2023-02-11T09:59:08.674Z,43.30
2023-02-11T10:00:08.688Z,43.43
2023-02-11T10:01:08.851Z,42.84
2023-02-11T10:02:08.745Z,43.13
2023-02-11T10:03:08.742Z,41.44
2023-02-11T10:04:08.777Z,42.16
2023-02-11T10:05:08.792Z,41.44
2023-02-11T10:06:08.794Z,39.76
2023-02-11T10:07:08.812Z,38.20
2023-02-11T10:08:08.831Z,39.46
2023-02-11T10:09:08.848Z,41.66
2023-02-11T10:10:08.868Z,44.44
2023-02-11T10:11:08.879Z,41.20
2023-02-11T10:12:08.898Z,43.34
2023-02-11T10:13:08.913Z,44.65
2023-02-11T10:14:08.929Z,41.80
2023-02-11T10:15:08.945Z,42.82
2023-02-11T10:16:09.049Z,41.08
2023-02-11T10:17:08.977Z,41.54
2023-02-11T10:18:09.046Z,40.37
2023-02-11T10:19:09.006Z,41.23
2023-02-11T10:20:09.017Z,42.75
2023-02-11T10:21:09.022Z,39.28
2023-02-11T10:22:09.040Z,42.24
2023-02-11T10:23:09.053Z,42.49
2023-02-11T10:24:09.060Z,45.93
2023-02-11T10:25:09.076Z,43.05
2023-02-11T10:26:09.082Z,39.22
2023-02-11T10:27:09.112Z,46.22
2023-02-11T10:28:09.138Z,41.48
2023-02-11T10:29:09.134Z,42.76
2023-02-11T10:30:09.143Z,43.41
2023-02-11T10:31:09.295Z,39.95
2023-02-11T10:32:09.364Z,41.32
2023-02-11T10:33:09.205Z,40.52
2023-02-11T10:34:09.270Z,43.48
2023-02-11T10:35:09.275Z,41.69
2023-02-11T10:36:09.305Z,43.68
2023-02-11T10:37:09.329Z,42.76
2023-02-11T10:38:09.364Z,41.90
2023-02-11T10:39:09.385Z,43.20
2023-02-11T10:40:09.413Z,39.79
2023-02-11T10:41:09.453Z,39.81
2023-02-11T10:42:09.478Z,42.35
2023-02-11T10:43:09.510Z,41.18
2023-02-11T10:44:09.529Z,46.41
2023-02-11T10:45:09.558Z,44.56
2023-02-11T10:46:09.607Z,44.85
2023-02-11T10:47:09.630Z,43.86
2023-02-11T10:48:09.656Z,44.98
2023-02-11T10:49:09.695Z,42.65
2023-02-11T10:50:09.715Z,42.79
2023-02-11T10:51:09.746Z,44.87
2023-02-11T10:52:10.275Z,43.23
2023-02-11T12:46:13.030Z,42.68
2023-02-11T12:47:12.977Z,45.20
2023-02-11T12:48:12.993Z,45.86
2023-02-11T12:49:13.016Z,43.69
2023-02-11T12:50:13.072Z,44.78
2023-02-11T12:51:13.052Z,45.00
2023-02-11T12:52:13.067Z,43.82
2023-02-11T12:53:13.102Z,45.07
2023-02-11T12:54:13.131Z,44.24
2023-02-11T12:55:13.163Z,45.16
2023-02-11T12:56:13.241Z,42.29
2023-02-11T12:57:13.197Z,43.58
2023-02-11T12:58:13.213Z,45.66
2023-02-11T12:59:14.440Z,44.58
2023-02-11T13:00:13.243Z,42.07
2023-02-11T13:02:14.289Z,45.31
2023-02-11T13:03:13.305Z,45.78
2023-02-11T13:04:13.338Z,43.40
2023-02-11T13:05:14.433Z,40.68
2023-02-11T13:06:13.431Z,45.24
2023-02-11T13:07:13.410Z,45.13
2023-02-11T13:08:13.427Z,44.05
2023-02-11T13:09:13.470Z,45.83
2023-02-11T13:10:13.483Z,43.77
2023-02-11T13:11:14.535Z,44.51
2023-02-11T13:12:13.532Z,43.72
2023-02-11T13:13:13.554Z,42.72
2023-02-11T13:14:13.593Z,42.97
2023-02-11T13:15:13.615Z,44.94
2023-02-11T13:16:13.717Z,46.04
2023-02-11T13:17:13.669Z,41.84
2023-02-11T13:18:13.720Z,41.48
2023-02-11T13:19:13.738Z,44.33
2023-02-11T13:20:13.769Z,41.84
2023-02-11T13:21:13.773Z,44.33
2023-02-11T13:22:14.777Z,42.46
2023-02-11T13:23:13.818Z,44.34
2023-02-11T13:24:13.841Z,44.77
2023-02-11T13:25:14.261Z,48.25
2023-02-11T13:26:13.958Z,44.90
2023-02-11T13:27:13.911Z,45.46
2023-02-11T13:28:14.064Z,46.04
2023-02-11T13:29:13.981Z,45.24
2023-02-11T13:30:14.009Z,44.06
2023-02-11T13:31:14.137Z,44.80
2023-02-11T13:32:14.145Z,44.05
2023-02-11T13:33:14.094Z,44.92
2023-02-11T13:34:14.113Z,43.28
2023-02-11T13:35:14.149Z,44.68
2023-02-11T13:36:14.172Z,46.87
2023-02-11T13:37:14.190Z,47.35
2023-02-11T13:38:14.223Z,44.09
2023-02-11T13:39:14.250Z,48.27
2023-02-11T13:40:14.272Z,46.36
2023-02-11T13:41:14.356Z,46.39
2023-02-11T13:42:14.315Z,45.79
2023-02-11T13:43:14.337Z,45.02
2023-02-11T13:44:14.366Z,46.93
2023-02-11T13:45:14.395Z,44.75
2023-02-11T13:46:14.507Z,46.05
2023-02-11T13:47:14.525Z,44.03
2023-02-11T13:48:14.450Z,46.73
2023-02-11T13:49:14.472Z,46.40
2023-02-11T13:50:14.508Z,49.33
2023-02-11T13:51:14.527Z,45.24
2023-02-11T13:52:14.626Z,45.63
2023-02-11T13:53:16.085Z,47.11
2023-02-11T13:54:14.626Z,45.83
2023-02-11T13:55:14.652Z,46.40
2023-02-11T13:56:14.681Z,47.30
2023-02-11T13:57:14.712Z,47.10
2023-02-11T13:58:14.751Z,47.25
2023-02-11T13:59:14.765Z,48.23
2023-02-11T14:00:14.800Z,46.45
2023-02-11T14:01:14.863Z,45.98
2023-02-11T14:02:14.889Z,46.34
2023-02-11T14:03:14.896Z,45.00
2023-02-11T14:04:14.929Z,45.15
2023-02-11T14:05:14.958Z,49.79
2023-02-11T14:06:14.991Z,47.24
2023-02-11T14:07:15.746Z,44.17
2023-02-11T14:08:15.059Z,49.33
2023-02-11T14:09:15.086Z,48.59
2023-02-11T14:10:15.187Z,47.65
2023-02-11T14:11:15.156Z,45.57
2023-02-11T14:12:15.270Z,46.55
2023-02-11T14:13:15.229Z,46.32
2023-02-11T14:14:15.270Z,46.50
2023-02-11T14:15:15.299Z,47.06
2023-02-11T14:16:20.300Z,47.51
2023-02-11T14:17:16.354Z,47.58
2023-02-11T14:18:15.359Z,47.88
2023-02-11T14:19:15.388Z,47.77
2023-02-11T14:20:15.405Z,49.10
2023-02-11T14:21:15.411Z,45.10
2023-02-11T14:22:15.428Z,49.46
2023-02-11T14:23:15.454Z,47.59
2023-02-11T14:24:15.487Z,50.30
2023-02-11T14:25:15.489Z,46.88
2023-02-11T14:26:16.808Z,47.45
2023-02-11T14:27:15.525Z,50.20
2023-02-11T14:28:15.567Z,48.09
2023-02-11T14:29:15.551Z,45.30
2023-02-11T14:30:15.574Z,49.59
2023-02-11T14:31:15.672Z,46.26
2023-02-11T14:32:15.632Z,46.62
2023-02-11T14:33:15.629Z,48.14
2023-02-11T14:34:15.722Z,48.34
2023-02-11T14:35:15.685Z,47.83
2023-02-11T14:36:15.690Z,45.95
2023-02-11T14:37:15.718Z,50.43
2023-02-11T14:38:15.721Z,47.57
2023-02-11T14:39:15.748Z,47.40
2023-02-11T14:40:15.775Z,44.19
2023-02-11T14:41:15.784Z,46.91
2023-02-11T14:42:16.798Z,48.85
2023-02-11T14:43:15.851Z,46.80
2023-02-11T14:44:15.850Z,50.61
2023-02-11T14:45:15.872Z,47.40
2023-02-11T14:46:15.946Z,50.30
2023-02-11T14:47:15.940Z,47.97
2023-02-11T14:48:15.978Z,48.06
2023-02-11T14:49:16.020Z,52.70
2023-02-11T14:50:16.057Z,48.37
2023-02-11T14:51:16.139Z,46.83
2023-02-11T14:52:16.127Z,50.63
2023-02-11T14:53:16.160Z,46.77
2023-02-11T14:54:16.192Z,48.81
2023-02-11T14:55:17.803Z,49.68
2023-02-11T14:56:16.263Z,49.74
2023-02-11T14:57:16.308Z,50.47
2023-02-11T14:58:16.325Z,49.87
2023-02-11T14:59:16.354Z,49.20
2023-02-11T15:00:16.516Z,49.56
2023-02-11T15:01:16.488Z,48.72
2023-02-11T15:02:16.478Z,46.80
2023-02-11T15:03:16.514Z,46.07
2023-02-11T15:04:16.519Z,49.91
2023-02-11T15:05:16.545Z,47.99
2023-02-11T15:06:16.574Z,50.53
2023-02-11T15:07:16.617Z,48.75
2023-02-11T15:08:16.662Z,46.38
2023-02-11T15:09:16.673Z,48.95
2023-02-11T15:10:16.691Z,52.28
2023-02-11T15:11:16.735Z,48.61
2023-02-11T15:12:16.754Z,50.55
2023-02-11T15:13:16.787Z,48.70
2023-02-11T15:14:16.827Z,49.75
2023-02-11T15:15:16.858Z,47.94
2023-02-11T15:16:16.912Z,48.52
2023-02-11T15:17:16.981Z,49.20
2023-02-11T15:18:17.740Z,48.20
2023-02-11T15:19:17.014Z,49.89
2023-02-11T15:20:17.042Z,47.55
2023-02-11T15:21:17.085Z,48.59
2023-02-11T15:22:17.126Z,51.55
2023-02-11T15:23:17.164Z,50.01
2023-02-11T15:24:17.207Z,49.93
2023-02-11T15:25:17.262Z,51.90
2023-02-11T15:26:17.285Z,50.46
2023-02-11T15:27:17.313Z,50.39
2023-02-11T15:28:18.272Z,52.02
2023-02-11T15:29:17.403Z,48.58
2023-02-11T15:30:17.439Z,49.65
2023-02-11T15:31:17.559Z,50.06
2023-02-11T15:32:17.594Z,51.17
2023-02-11T15:33:17.531Z,48.26
2023-02-11T15:34:17.573Z,48.65
2023-02-11T15:35:17.620Z,46.99
2023-02-11T15:36:17.652Z,49.53
2023-02-11T15:37:17.696Z,50.81
2023-02-11T15:38:17.737Z,48.62
2023-02-11T15:39:17.855Z,48.46
2023-02-11T15:40:17.825Z,49.35
2023-02-11T15:41:17.858Z,49.26
2023-02-11T15:42:17.910Z,47.75
2023-02-11T15:43:17.933Z,49.86
2023-02-11T15:44:17.967Z,49.40
2023-02-11T15:45:18.009Z,51.50
2023-02-11T15:46:18.113Z,50.04
2023-02-11T15:47:18.090Z,49.33
2023-02-11T15:48:18.145Z,48.40
2023-02-11T15:49:18.177Z,51.12
2023-02-11T15:50:18.205Z,47.51
2023-02-11T15:51:18.250Z,47.25
2023-02-11T15:52:18.293Z,54.34
2023-02-11T15:53:18.344Z,46.24
2023-02-11T15:54:18.378Z,47.79
2023-02-11T15:55:18.420Z,50.78
2023-02-11T15:56:19.252Z,49.50
2023-02-11T15:57:18.576Z,50.95
2023-02-11T15:58:18.595Z,49.14
2023-02-11T15:59:18.587Z,51.68
2023-02-11T16:00:18.621Z,47.58
2023-02-11T16:01:18.704Z,48.52
2023-02-11T16:02:18.684Z,50.73
2023-02-11T16:03:18.739Z,50.16
2023-02-11T16:04:18.790Z,50.61
2023-02-11T16:05:18.789Z,50.80
2023-02-11T16:06:19.240Z,50.52
2023-02-11T16:07:18.874Z,50.56
2023-02-11T16:08:18.902Z,49.67
2023-02-11T16:09:19.016Z,48.83
2023-02-11T16:10:18.998Z,53.14
2023-02-11T16:11:19.033Z,50.07
2023-02-11T16:12:19.076Z,51.64
2023-02-11T16:13:19.106Z,51.10
2023-02-11T16:14:19.146Z,50.80
2023-02-11T16:15:19.260Z,53.11
2023-02-11T16:16:19.288Z,51.48
2023-02-11T16:17:19.269Z,50.44
2023-02-11T16:18:19.316Z,52.99
2023-02-11T16:19:19.372Z,52.83
2023-02-11T16:20:19.406Z,45.87
2023-02-11T16:21:19.447Z,51.78
2023-02-11T16:22:19.488Z,50.38
2023-02-11T16:23:19.556Z,51.09
2023-02-11T16:24:19.574Z,53.23
2023-02-11T16:25:19.608Z,51.73
2023-02-11T16:26:19.657Z,49.13
2023-02-11T16:27:19.698Z,50.75
2023-02-11T16:28:19.776Z,49.67
2023-02-11T16:29:19.796Z,51.27
2023-02-11T16:30:19.829Z,51.65
2023-02-11T16:31:20.019Z,51.15
2023-02-11T16:32:19.912Z,53.42
2023-02-11T16:33:19.960Z,50.66
2023-02-11T16:34:19.999Z,51.19
2023-02-11T16:35:20.058Z,51.19
2023-02-11T16:36:20.103Z,47.99
2023-02-11T16:37:20.133Z,55.49
2023-02-11T16:38:20.183Z,52.60
2023-02-11T16:39:20.218Z,53.45
2023-02-11T16:40:20.345Z,51.61
2023-02-11T16:41:20.305Z,49.58
2023-02-11T16:42:20.357Z,54.18
2023-02-11T16:43:20.412Z,55.61
2023-02-11T16:44:20.437Z,50.15
2023-02-11T16:45:20.502Z,50.82
2023-02-11T16:46:20.553Z,54.68
2023-02-11T16:47:20.576Z,57.17
2023-02-11T16:48:20.632Z,53.43
2023-02-11T16:49:20.656Z,49.56
2023-02-11T16:50:20.696Z,49.34
2023-02-11T16:51:20.786Z,49.10
2023-02-11T16:52:20.795Z,51.68
2023-02-11T16:53:20.830Z,52.17
2023-02-11T16:54:20.882Z,51.75
2023-02-11T16:55:22.284Z,51.11
2023-02-11T16:56:20.961Z,50.43
2023-02-11T16:57:21.008Z,53.26
2023-02-11T16:58:21.051Z,54.43
2023-02-11T16:59:21.085Z,53.57
2023-02-11T17:00:21.127Z,53.72
2023-02-11T17:01:21.232Z,49.94
2023-02-11T17:02:23.625Z,50.20
2023-02-11T17:03:21.241Z,49.99
2023-02-11T17:04:21.307Z,53.81
2023-02-11T17:05:21.274Z,55.03
2023-02-11T17:06:21.297Z,53.90
2023-02-11T17:07:21.326Z,58.25
2023-02-11T17:08:21.335Z,50.58
2023-02-11T17:09:21.386Z,52.88
2023-02-11T17:10:21.382Z,51.96
2023-02-11T17:11:21.426Z,57.54
2023-02-11T17:12:21.419Z,50.31
2023-02-11T17:13:21.440Z,53.17